NCAR-RAP Real-Time Weather Data

Output produced by METARs form (19 June 2019  11:40 UTC)
found at http://weather.rap.ucar.edu/surface/
 
KBGR 191112Z 23004KT 1 1/2SM BR OVC002 15/15 A2987 RMK AO2 T01500150
KBGR 191053Z 19006KT 3/4SM R15/P6000FT BR OVC002 15/15 A2987 RMK AO2 SLP114 T01500150
KBGR 190953Z 20006KT 1/2SM R15/3000V4500FT FG OVC002 15/14 A2988 RMK AO2 SLP117 T01500144
KBGR 190910Z 19003KT 1/2SM R15/2200V2800FT FG OVC002 15/14 A2989 RMK AO2 T01500144
KBGR 190853Z 21003KT 1/2SM R15/1600FT FG OVC002 14/14 A2988 RMK AO2 SLP117 T01440144 55004
KBGR 190836Z 20007KT 1/2SM R15/1600V1800FT FG VV002 14/14 A2988 RMK AO2 T01440144
KBGR 190753Z 19005KT 1/2SM R15/2400V2600FT FG VV002 14/14 A2988 RMK AO2 SLP116 T01440144
KBGR 190732Z 20005KT 1/2SM R15/2200V2400FT FG VV002 14/14 A2988 RMK AO2 T01440139
KBGR 190724Z 21005KT 1/2SM R15/2000V2200FT FG VV002 14/14 A2988 RMK AO2 T01440139
KBGR 190715Z 21004KT 1/4SM R15/1800V2200FT FG VV002 14/14 A2988 RMK AO2 TWR VIS 1/2 T01390139
KBGR 190653Z 21004KT 1/4SM R15/2000V2400FT FG VV002 14/14 A2989 RMK AO2 TWR VIS 1/2 SLP119 T01390139
KBGR 190616Z 21004KT 1/4SM R15/2000V2200FT FG VV002 14/13 A2989 RMK AO2 TWR VIS 1/2 T01390133
KBGR 190553Z 19006KT 1/2SM R15/4500VP6000FT BR OVC002 13/13 A2990 RMK AO2 SFC VIS 1 SLP121 T01330128 10189 20122 56005
KBGR 190539Z 19004KT 2 1/2SM BR BKN002 13/13 A2989 RMK AO2 T01280128
KBGR 190527Z 17005KT 8SM SCT002 13/12 A2989 RMK AO2 T01280117
KBGR 190453Z 16004KT 10SM FEW100 13/12 A2990 RMK AO2 SLP121 T01280117 402560089
KBGR 190353Z 20006KT 10SM CLR 14/12 A2991 RMK AO2 SLP125 T01390117
KBGR 190253Z 19006KT 10SM FEW250 16/11 A2991 RMK AO2 SLP126 T01560106 53003
KBGR 190153Z 20005KT 10SM FEW250 17/11 A2991 RMK AO2 SLP125 T01670106
KBGR 190053Z 18004KT 10SM FEW250 18/09 A2990 RMK AO2 SLP123 T01780094
KBGR 182353Z 15007KT 10SM FEW120 FEW250 18/09 A2990 RMK AO2 SLP123 T01830094 10244 20183 56006
KBGR 182253Z 18007KT 10SM FEW120 FEW250 21/09 A2990 RMK AO2 SLP124 T02110094
KBGR 182153Z 18011KT 10SM FEW120 FEW250 22/09 A2991 RMK AO2 SLP127 T02170094
KBGR 182053Z 21008KT 10SM FEW070 FEW120 SCT250 23/08 A2992 RMK AO2 SLP129 T02280083 57008
KBGR 181953Z 21010KT 10SM FEW070 SCT120 BKN250 23/08 A2993 RMK AO2 SLP134 T02280083
KBGR 181853Z 18009KT 10SM SCT070 BKN120 BKN200 24/08 A2993 RMK AO2 SLP133 T02390083
KBGR 181753Z 23005KT 10SM SCT070 BKN120 BKN200 24/07 A2994 RMK AO2 SLP137 T02390072 10256 20172 58017
KBGR 181653Z 00000KT 10SM SCT055 BKN120 BKN200 24/08 A2996 RMK AO2 SLP143 T02390083
KBGR 181553Z VRB05KT 10SM SCT045 BKN200 24/08 A2998 RMK AO2 SLP151 T02390078
KBGR 181453Z 00000KT 10SM FEW045 BKN200 22/09 A2999 RMK AO2 SLP154 T02220089 58005
KBGR 181353Z 00000KT 10SM FEW045 BKN200 21/10 A3000 RMK AO2 SLP157 T02060100